Terminal Aerodrome Forecast
Issued by NWS Brownsville, TX

Home | Current Version | Previous Version | Text Only | Print | Product List | Glossary On
Versions: 1 2 3 4 5 6 7 8 9 10 11 12 13 14 15 16 17 18 19 20 21 22 23 24 25 26 27 28 29 30 31 32
000
FTUS44 KBRO 181409 AAE
TAFBRO
TAF AMD
KBRO 181409Z 1814/1912 08004KT 6SM BR OVC110
      TEMPO 1814/1815 4SM -RA BR SCT005
     FM181600 VRB04KT P6SM VCSH OVC025
     FM181800 12014KT P6SM VCTS BKN035CB OVC150
     FM182200 12010KT P6SM BKN035
     FM190200 12008KT P6SM BKN018=

USA.gov is the U.S. government's official web portal to all federal, state and local government web resources and services.